Time;durP1;ratioP1;P1;durP2;ratioP2;P2;SDS_P1;SDS_P2;PMS_P1;PMS_P2;Temp;Humidity;BMP_temperature;BMP_pressure;BME280_temperature;BME280_humidity;BME280_pressure;Samples;Min_cycle;Max_cycle;Signal;HPM_P1;HPM_P2
2021/11/11 00:00:41;;;;;;;29.33;19.52;;;2.90;99.90;;;;;;4993387;28;20109;-76
2021/11/11 00:03:07;;;;;;;31.92;19.52;;;2.90;99.90;;;;;;4987269;28;20034;-76
2021/11/11 00:05:34;;;;;;;26.05;19.48;;;2.90;99.90;;;;;;4979602;28;20461;-75
2021/11/11 00:08:00;;;;;;;31.13;21.38;;;2.90;99.90;;;;;;4985873;28;20053;-76
2021/11/11 00:10:27;;;;;;;27.90;20.45;;;2.90;99.90;;;;;;4983846;28;20370;-75
2021/11/11 00:12:53;;;;;;;28.73;19.13;;;2.90;99.90;;;;;;4986666;28;20453;-76
2021/11/11 00:15:21;;;;;;;28.33;20.48;;;2.90;99.90;;;;;;4982992;28;20125;-78
2021/11/11 00:17:48;;;;;;;28.65;19.73;;;2.90;99.90;;;;;;5004648;28;20038;-74
2021/11/11 00:20:15;;;;;;;32.47;21.05;;;2.80;99.90;;;;;;4986935;28;20077;-74
2021/11/11 00:22:43;;;;;;;29.75;20.20;;;2.90;99.90;;;;;;4980747;28;20193;-74
2021/11/11 00:25:09;;;;;;;28.38;20.05;;;2.80;99.90;;;;;;4988319;28;20062;-73
2021/11/11 00:27:35;;;;;;;30.10;21.75;;;2.90;99.90;;;;;;4986648;28;20073;-77
2021/11/11 00:30:01;;;;;;;30.10;22.63;;;2.90;99.90;;;;;;5001006;28;20558;-78
2021/11/11 00:32:27;;;;;;;30.60;21.58;;;2.90;99.90;;;;;;4992763;28;20061;-76
2021/11/11 00:34:53;;;;;;;30.63;20.85;;;2.90;99.90;;;;;;4985824;28;20026;-79
2021/11/11 00:37:21;;;;;;;31.15;22.77;;;2.80;99.90;;;;;;4985132;28;20026;-73
2021/11/11 00:39:47;;;;;;;36.80;22.70;;;2.80;99.90;;;;;;4989097;28;20026;-74
2021/11/11 00:42:13;;;;;;;30.30;23.02;;;2.90;99.90;;;;;;4986241;28;20048;-74
2021/11/11 00:44:39;;;;;;;28.67;21.60;;;2.90;99.90;;;;;;4989528;28;20026;-76
2021/11/11 00:47:04;;;;;;;27.80;21.75;;;2.80;99.90;;;;;;4988197;28;20033;-72
2021/11/11 00:49:30;;;;;;;35.40;24.05;;;2.80;99.90;;;;;;4986641;28;20030;-73
2021/11/11 00:51:56;;;;;;;35.42;25.00;;;2.80;99.90;;;;;;4979872;28;20038;-73
2021/11/11 00:54:22;;;;;;;34.78;23.55;;;2.80;99.90;;;;;;4980745;28;20034;-73
2021/11/11 00:56:48;;;;;;;34.70;22.60;;;2.80;99.90;;;;;;4987627;28;20030;-73
2021/11/11 00:59:13;;;;;;;30.27;22.08;;;2.80;99.90;;;;;;5000532;28;20031;-73
2021/11/11 01:01:39;;;;;;;28.95;21.70;;;2.70;99.90;;;;;;4988379;28;20026;-73
2021/11/11 01:04:05;;;;;;;31.98;20.90;;;2.70;99.90;;;;;;4988072;28;20028;-73
2021/11/11 01:06:31;;;;;;;30.25;22.30;;;2.70;99.90;;;;;;4985622;28;20085;-76
2021/11/11 01:08:57;;;;;;;29.35;20.90;;;2.70;99.90;;;;;;4985940;28;20018;-73
2021/11/11 01:11:24;;;;;;;31.92;21.15;;;2.70;99.90;;;;;;5002714;28;20048;-72
2021/11/11 01:13:50;;;;;;;28.58;20.48;;;2.70;99.90;;;;;;4989088;28;20380;-78
2021/11/11 01:16:15;;;;;;;29.35;20.23;;;2.60;99.90;;;;;;4983802;28;20037;-76
2021/11/11 01:18:41;;;;;;;37.45;20.48;;;2.60;99.90;;;;;;4990245;28;20065;-77
2021/11/11 01:21:08;;;;;;;27.40;20.20;;;2.70;99.90;;;;;;4987897;28;20493;-77
2021/11/11 01:23:34;;;;;;;32.17;20.92;;;2.60;99.90;;;;;;4990911;28;20149;-76
2021/11/11 01:26:00;;;;;;;30.02;20.55;;;2.60;99.90;;;;;;4985067;28;20073;-76
2021/11/11 01:28:26;;;;;;;28.67;20.65;;;2.60;99.90;;;;;;4982347;28;20101;-77
2021/11/11 01:30:52;;;;;;;30.05;20.50;;;2.60;99.90;;;;;;4988496;28;20483;-77
2021/11/11 01:33:18;;;;;;;36.92;22.73;;;2.60;99.90;;;;;;4990684;28;20035;-76
2021/11/11 01:35:44;;;;;;;34.60;21.70;;;2.60;99.90;;;;;;4991323;28;20046;-76
2021/11/11 01:38:09;;;;;;;33.85;23.08;;;2.60;99.90;;;;;;4989750;28;20505;-76
2021/11/11 01:40:36;;;;;;;34.00;21.58;;;2.50;99.90;;;;;;4989812;28;20085;-76
2021/11/11 01:43:05;;;;;;;32.50;22.67;;;2.50;99.90;;;;;;4980869;28;20102;-76
2021/11/11 01:45:38;;;;;;;40.78;23.05;;;2.50;99.90;;;;;;4986479;28;20023;-76
2021/11/11 01:48:05;;;;;;;33.80;22.27;;;2.40;99.90;;;;;;4989492;28;20037;-76
2021/11/11 01:50:31;;;;;;;30.50;20.10;;;2.50;99.90;;;;;;4987938;28;20073;-77
2021/11/11 01:52:59;;;;;;;30.08;20.42;;;2.50;99.90;;;;;;4984724;28;20124;-77
2021/11/11 01:55:24;;;;;;;29.13;20.58;;;2.50;99.90;;;;;;4991719;28;20042;-76
2021/11/11 01:57:51;;;;;;;30.15;21.00;;;2.40;99.90;;;;;;4997917;28;20030;-75
2021/11/11 02:00:29;;;;;;;37.08;22.17;;;2.40;99.90;;;;;;4996145;28;20035;-77
2021/11/11 02:02:57;;;;;;;37.67;24.67;;;2.40;99.90;;;;;;4995554;28;20042;-76
2021/11/11 02:05:23;;;;;;;36.92;23.77;;;2.60;99.90;;;;;;4988409;28;20033;-76
2021/11/11 02:07:50;;;;;;;36.45;22.83;;;2.70;99.90;;;;;;4993998;28;20022;-76
2021/11/11 02:10:15;;;;;;;37.78;23.80;;;2.70;99.90;;;;;;4991533;28;20494;-77
2021/11/11 02:12:41;;;;;;;36.63;24.38;;;2.60;99.90;;;;;;4987328;28;20034;-77
2021/11/11 02:15:07;;;;;;;36.22;25.95;;;2.50;99.90;;;;;;4993258;28;20037;-76
2021/11/11 02:17:33;;;;;;;32.85;23.15;;;2.60;99.90;;;;;;4992693;28;20026;-77
2021/11/11 02:20:11;;;;;;;36.30;24.08;;;2.50;99.90;;;;;;4990220;28;20041;-76
2021/11/11 02:22:38;;;;;;;35.70;22.05;;;2.60;99.90;;;;;;4990605;28;20018;-76
2021/11/11 02:25:09;;;;;;;33.58;22.73;;;2.60;99.90;;;;;;4994186;28;20027;-76
2021/11/11 02:27:35;;;;;;;35.33;22.35;;;2.50;99.90;;;;;;4991399;28;20027;-77
2021/11/11 02:30:01;;;;;;;33.05;23.33;;;2.50;99.90;;;;;;4989329;28;20046;-77
2021/11/11 02:32:34;;;;;;;35.75;24.98;;;2.40;99.90;;;;;;4990979;28;20079;-76
2021/11/11 02:35:00;;;;;;;33.72;22.80;;;2.40;99.90;;;;;;4986431;28;20070;-75
2021/11/11 02:37:27;;;;;;;36.30;23.25;;;2.40;99.90;;;;;;4990332;28;20022;-76
2021/11/11 02:39:53;;;;;;;35.33;23.45;;;2.30;99.90;;;;;;5007625;28;20034;-76
2021/11/11 02:42:19;;;;;;;37.20;24.77;;;2.30;99.90;;;;;;4990439;28;20102;-75
2021/11/11 02:44:45;;;;;;;34.28;24.25;;;2.30;99.90;;;;;;4985611;28;20023;-75
2021/11/11 02:47:11;;;;;;;32.65;23.38;;;2.30;99.90;;;;;;4990987;28;20081;-75
2021/11/11 02:49:36;;;;;;;38.13;24.65;;;2.30;99.90;;;;;;4993455;28;20022;-75
2021/11/11 02:52:02;;;;;;;33.75;21.92;;;2.30;99.90;;;;;;5004583;28;20058;-76
2021/11/11 02:54:28;;;;;;;38.35;23.90;;;2.20;99.90;;;;;;4996042;28;20046;-76
2021/11/11 02:56:54;;;;;;;42.95;26.83;;;2.20;99.90;;;;;;4983314;28;20037;-75
2021/11/11 02:59:20;;;;;;;35.47;24.33;;;2.30;99.90;;;;;;4993972;28;20041;-77
2021/11/11 03:01:45;;;;;;;44.08;27.60;;;2.30;99.90;;;;;;4995471;28;20026;-75
2021/11/11 03:04:11;;;;;;;38.65;23.40;;;2.20;99.90;;;;;;4995676;28;20025;-76
2021/11/11 03:06:40;;;;;;;40.42;25.20;;;2.20;99.90;;;;;;4981699;28;20023;-76
2021/11/11 03:09:06;;;;;;;37.20;24.20;;;2.20;99.90;;;;;;4992008;28;20516;-76
2021/11/11 03:11:32;;;;;;;37.17;24.10;;;2.20;99.90;;;;;;4993036;28;20081;-76
2021/11/11 03:13:58;;;;;;;33.60;24.67;;;2.10;99.90;;;;;;5002699;28;20026;-75
2021/11/11 03:16:24;;;;;;;35.50;25.63;;;2.20;99.90;;;;;;5012878;28;20034;-76
2021/11/11 03:18:50;;;;;;;43.33;23.90;;;2.20;99.90;;;;;;5008675;28;20029;-78
2021/11/11 03:21:16;;;;;;;36.72;24.80;;;2.20;99.90;;;;;;5031300;28;20089;-75
2021/11/11 03:23:42;;;;;;;34.92;23.45;;;2.10;99.90;;;;;;4989109;28;20027;-76
2021/11/11 03:26:08;;;;;;;37.95;24.92;;;2.10;99.90;;;;;;4987333;28;20654;-77
2021/11/11 03:28:33;;;;;;;41.90;24.15;;;2.20;99.90;;;;;;5011910;28;20413;-76
2021/11/11 03:30:59;;;;;;;32.28;24.52;;;2.20;99.90;;;;;;4987105;28;20049;-76
2021/11/11 03:33:25;;;;;;;38.15;24.40;;;2.10;99.90;;;;;;4994772;28;20034;-76
2021/11/11 03:35:50;;;;;;;32.10;24.52;;;2.20;99.90;;;;;;4993260;28;20030;-76
2021/11/11 03:38:17;;;;;;;34.47;24.30;;;2.40;99.90;;;;;;4995213;28;20405;-77
2021/11/11 03:40:45;;;;;;;34.92;24.02;;;2.60;99.90;;;;;;4992234;28;20481;-75
2021/11/11 03:43:12;;;;;;;35.58;23.55;;;2.50;99.90;;;;;;4993125;28;20030;-75
2021/11/11 03:45:38;;;;;;;29.20;21.63;;;2.40;99.90;;;;;;4998935;28;20033;-74
2021/11/11 03:48:04;;;;;;;38.97;25.38;;;2.40;99.90;;;;;;5007316;28;20057;-75
2021/11/11 03:50:30;;;;;;;36.58;23.55;;;2.40;99.90;;;;;;5005908;28;20169;-76
2021/11/11 03:52:56;;;;;;;39.20;24.73;;;2.20;99.90;;;;;;5007761;28;20402;-76
2021/11/11 03:55:25;;;;;;;31.75;23.48;;;2.30;99.90;;;;;;4996262;28;20053;-75
2021/11/11 03:57:51;;;;;;;36.72;24.23;;;2.40;99.90;;;;;;5003944;28;20034;-76
2021/11/11 04:00:19;;;;;;;38.55;25.63;;;2.20;99.90;;;;;;4994625;28;20026;-76
2021/11/11 04:02:45;;;;;;;33.80;25.55;;;2.10;99.90;;;;;;4991833;28;20062;-75
2021/11/11 04:05:11;;;;;;;36.85;25.42;;;2.00;99.90;;;;;;4983944;28;20033;-75
2021/11/11 04:07:37;;;;;;;41.05;27.85;;;1.90;99.90;;;;;;4989082;28;20026;-78
2021/11/11 04:10:05;;;;;;;40.47;27.50;;;2.00;99.90;;;;;;4991505;28;20030;-75
2021/11/11 04:12:31;;;;;;;38.50;27.58;;;2.20;99.90;;;;;;4990939;28;20026;-76
2021/11/11 04:14:56;;;;;;;38.20;25.83;;;2.30;99.90;;;;;;4993613;28;20039;-77
2021/11/11 04:17:22;;;;;;;38.38;26.05;;;2.20;99.90;;;;;;4985064;28;20469;-77
2021/11/11 04:19:48;;;;;;;39.47;26.70;;;2.00;99.90;;;;;;4989047;28;20030;-76
2021/11/11 04:22:13;;;;;;;35.55;24.67;;;2.00;99.90;;;;;;4994630;28;20513;-76
2021/11/11 04:24:41;;;;;;;38.47;25.35;;;2.00;99.90;;;;;;5014693;28;20050;-75
2021/11/11 04:27:10;;;;;;;38.38;26.45;;;2.00;99.90;;;;;;5010697;28;20034;-75
2021/11/11 04:29:41;;;;;;;31.92;23.73;;;2.00;99.90;;;;;;5011803;28;20026;-76
2021/11/11 04:32:09;;;;;;;37.80;24.20;;;2.00;99.90;;;;;;5007380;28;20118;-75
2021/11/11 04:34:37;;;;;;;36.75;25.85;;;1.90;99.90;;;;;;5002742;28;20018;-76
2021/11/11 04:42:29;;;;;;;36.97;25.23;;;2.00;99.90;;;;;;4995066;28;20033;-76
2021/11/11 04:45:22;;;;;;;33.83;22.48;;;1.90;99.90;;;;;;4986280;28;20478;-76
2021/11/11 05:01:39;;;;;;;33.25;22.95;;;2.00;99.90;;;;;;4984585;28;20454;-76
2021/11/11 05:04:05;;;;;;;31.27;24.58;;;2.00;99.90;;;;;;4992470;28;20366;-77
2021/11/11 05:06:31;;;;;;;31.10;23.05;;;2.00;99.90;;;;;;4989612;28;20089;-77
2021/11/11 05:08:58;;;;;;;35.05;24.65;;;1.90;99.90;;;;;;4988200;28;20038;-76
2021/11/11 05:11:24;;;;;;;41.63;25.27;;;1.90;99.90;;;;;;4990704;28;20218;-76
2021/11/11 05:13:50;;;;;;;34.33;24.15;;;1.80;99.90;;;;;;4993413;28;20494;-76
2021/11/11 05:16:15;;;;;;;34.30;25.75;;;1.70;99.90;;;;;;4985475;28;20081;-76
2021/11/11 05:18:41;;;;;;;36.65;24.83;;;1.70;99.90;;;;;;5017665;23;20699;-77
2021/11/11 05:21:07;;;;;;;36.13;23.95;;;1.80;99.90;;;;;;5019191;28;20030;-77
2021/11/11 05:23:32;;;;;;;35.17;25.85;;;1.80;99.90;;;;;;5044934;28;20067;-78
2021/11/11 05:25:58;;;;;;;32.83;24.48;;;1.60;99.90;;;;;;5025359;28;20034;-76
2021/11/11 05:28:23;;;;;;;36.97;26.38;;;1.60;99.90;;;;;;5025434;28;20041;-76
2021/11/11 05:30:50;;;;;;;38.08;26.92;;;1.40;99.90;;;;;;5017053;28;20535;-78
2021/11/11 05:33:16;;;;;;;44.20;26.90;;;1.40;99.90;;;;;;5036158;28;20061;-77
2021/11/11 05:35:41;;;;;;;38.13;25.92;;;1.50;99.90;;;;;;5031319;28;20030;-77
2021/11/11 05:38:07;;;;;;;37.22;26.25;;;1.60;99.90;;;;;;5022369;28;20038;-77
2021/11/11 05:40:33;;;;;;;38.42;24.88;;;1.60;99.90;;;;;;5019167;28;20038;-78
2021/11/11 05:42:58;;;;;;;35.72;23.83;;;1.50;99.90;;;;;;5016511;28;20125;-77
2021/11/11 05:45:24;;;;;;;38.15;25.45;;;1.50;99.90;;;;;;5018740;28;20030;-77
2021/11/11 05:47:50;;;;;;;40.45;24.95;;;1.40;99.90;;;;;;5008629;28;20030;-77
2021/11/11 05:50:17;;;;;;;35.17;24.90;;;1.30;99.90;;;;;;5017223;28;20034;-78
2021/11/11 05:52:43;;;;;;;32.38;25.27;;;1.30;99.90;;;;;;5034800;28;20482;-78
2021/11/11 05:55:09;;;;;;;35.92;25.60;;;1.30;99.90;;;;;;5018209;28;20041;-78
2021/11/11 05:57:36;;;;;;;38.95;26.42;;;1.30;99.90;;;;;;5014814;28;20111;-78
2021/11/11 06:00:03;;;;;;;34.47;25.23;;;1.30;99.90;;;;;;5011927;28;20044;-78
2021/11/11 06:02:29;;;;;;;36.35;24.35;;;1.30;99.90;;;;;;5018696;28;20045;-78
2021/11/11 06:04:54;;;;;;;33.75;25.65;;;1.30;99.90;;;;;;5015492;28;20374;-78
2021/11/11 06:07:20;;;;;;;34.35;22.90;;;1.30;99.90;;;;;;5014271;28;20018;-78
2021/11/11 06:09:46;;;;;;;31.63;22.88;;;1.50;99.90;;;;;;5008560;28;20030;-77
2021/11/11 06:12:11;;;;;;;29.02;22.00;;;1.50;99.90;;;;;;5017354;28;20033;-78
2021/11/11 06:14:37;;;;;;;35.35;23.38;;;1.60;99.90;;;;;;5022430;28;20081;-77
2021/11/11 06:17:06;;;;;;;34.97;23.52;;;1.60;99.90;;;;;;5026802;28;20097;-79
2021/11/11 06:19:34;;;;;;;29.15;22.30;;;1.60;99.90;;;;;;5012556;28;20165;-77
2021/11/11 06:21:59;;;;;;;38.58;24.45;;;1.50;99.90;;;;;;5020509;28;20026;-77
2021/11/11 06:24:25;;;;;;;34.55;23.13;;;1.40;99.90;;;;;;5017206;28;20022;-78
2021/11/11 06:26:51;;;;;;;32.97;24.52;;;1.40;99.90;;;;;;5024399;28;20022;-78
2021/11/11 06:29:16;;;;;;;33.70;22.77;;;1.40;99.90;;;;;;5012267;28;20569;-77
2021/11/11 06:31:42;;;;;;;36.95;25.73;;;1.30;99.90;;;;;;5014484;28;20034;-77
2021/11/11 06:34:08;;;;;;;35.72;25.67;;;1.40;99.90;;;;;;5019816;28;20076;-77
2021/11/11 06:36:33;;;;;;;34.85;23.52;;;1.50;99.90;;;;;;5011462;28;20040;-77
2021/11/11 06:38:59;;;;;;;32.90;22.65;;;1.50;99.90;;;;;;5019326;28;20030;-78
2021/11/11 06:41:25;;;;;;;37.72;23.92;;;1.50;99.90;;;;;;5022800;28;20080;-77
2021/11/11 06:43:52;;;;;;;33.97;22.90;;;1.50;99.90;;;;;;5019208;28;20529;-78
2021/11/11 06:46:18;;;;;;;40.35;22.33;;;1.60;99.90;;;;;;5013484;28;20434;-77
2021/11/11 06:48:44;;;;;;;30.60;21.65;;;1.70;99.90;;;;;;5018738;28;20060;-77
2021/11/11 06:51:09;;;;;;;24.33;19.83;;;1.80;99.90;;;;;;5024709;28;20022;-78
2021/11/11 06:53:35;;;;;;;27.50;21.58;;;1.90;99.90;;;;;;5021182;28;20050;-78
2021/11/11 06:56:01;;;;;;;25.52;20.33;;;1.90;99.90;;;;;;5020045;28;20030;-79
2021/11/11 06:58:27;;;;;;;30.67;21.08;;;2.00;99.90;;;;;;5022098;28;20061;-79
2021/11/11 07:00:58;;;;;;;25.00;19.67;;;2.00;99.90;;;;;;5017259;28;20030;-79
2021/11/11 07:03:24;;;;;;;26.38;20.92;;;2.10;99.90;;;;;;5024704;28;20046;-76
2021/11/11 07:05:50;;;;;;;24.88;18.98;;;2.20;99.90;;;;;;5028604;28;20041;-78
2021/11/11 07:08:16;;;;;;;28.10;20.70;;;2.10;99.90;;;;;;5028204;28;20030;-78
2021/11/11 07:10:47;;;;;;;24.65;18.90;;;2.10;99.90;;;;;;5033238;28;20089;-77
2021/11/11 07:13:13;;;;;;;26.45;20.23;;;2.20;99.90;;;;;;5027798;28;20132;-78
2021/11/11 07:15:41;;;;;;;36.03;23.23;;;2.40;99.90;;;;;;5033450;28;20053;-78
2021/11/11 07:18:08;;;;;;;33.65;22.35;;;2.40;99.90;;;;;;5023186;28;20103;-77
2021/11/11 07:20:34;;;;;;;28.30;21.67;;;2.50;99.90;;;;;;5025455;28;20480;-78
2021/11/11 07:23:03;;;;;;;25.60;20.27;;;2.50;99.90;;;;;;5016144;28;20032;-77
2021/11/11 07:25:29;;;;;;;32.65;20.65;;;2.60;99.90;;;;;;5014116;28;20024;-80
2021/11/11 07:27:55;;;;;;;33.28;23.05;;;2.80;99.90;;;;;;5021402;28;20386;-77
2021/11/11 07:30:21;;;;;;;37.85;23.23;;;2.80;99.90;;;;;;5011625;28;20109;-76
2021/11/11 07:32:48;;;;;;;32.83;22.10;;;2.90;99.90;;;;;;5020232;28;20037;-78
2021/11/11 07:35:14;;;;;;;30.85;21.20;;;2.90;99.90;;;;;;5018911;28;20045;-78
2021/11/11 07:37:42;;;;;;;32.25;23.10;;;2.90;99.90;;;;;;5027764;28;20033;-78
2021/11/11 07:40:11;;;;;;;34.70;23.52;;;2.90;99.90;;;;;;5019975;28;20110;-78
2021/11/11 07:42:37;;;;;;;41.30;24.60;;;2.90;99.90;;;;;;5024940;28;20385;-78
2021/11/11 07:45:07;;;;;;;37.03;23.50;;;2.90;99.90;;;;;;5016438;28;20033;-78
2021/11/11 07:47:33;;;;;;;38.25;23.92;;;2.80;99.90;;;;;;5019879;28;20088;-80
2021/11/11 07:50:02;;;;;;;36.47;23.75;;;2.90;99.90;;;;;;5018854;28;20040;-77
2021/11/11 07:52:29;;;;;;;39.60;23.58;;;3.10;99.90;;;;;;5020908;28;20041;-78
2021/11/11 07:54:57;;;;;;;30.52;22.75;;;2.90;99.90;;;;;;5025015;28;20028;-78
2021/11/11 07:57:29;;;;;;;37.05;22.83;;;2.90;99.90;;;;;;5018929;28;20045;-78
2021/11/11 07:59:55;;;;;;;38.35;25.50;;;3.00;99.90;;;;;;5019535;28;20137;-79
2021/11/11 08:02:22;;;;;;;33.15;24.33;;;2.90;99.90;;;;;;5027890;28;20030;-79
2021/11/11 08:04:48;;;;;;;33.47;22.83;;;2.90;99.90;;;;;;5031423;28;20029;-76
2021/11/11 08:07:17;;;;;;;43.53;27.67;;;2.80;99.90;;;;;;5035618;28;20069;-77
2021/11/11 08:09:44;;;;;;;35.92;23.40;;;2.90;99.90;;;;;;5027976;28;20073;-78
2021/11/11 08:12:10;;;;;;;32.25;24.27;;;2.90;99.90;;;;;;5026443;28;20034;-77
2021/11/11 08:14:35;;;;;;;37.58;23.08;;;3.00;99.90;;;;;;5023197;28;20052;-77
2021/11/11 08:17:01;;;;;;;46.58;25.42;;;3.00;99.90;;;;;;5020191;28;20030;-78
2021/11/11 08:19:27;;;;;;;36.88;24.15;;;3.10;99.90;;;;;;5026226;28;20061;-76
2021/11/11 08:21:52;;;;;;;33.85;23.10;;;3.20;99.90;;;;;;5018183;28;20082;-78
2021/11/11 08:24:18;;;;;;;31.98;23.65;;;3.30;99.90;;;;;;5028338;28;20149;-77
2021/11/11 08:26:45;;;;;;;32.50;22.65;;;3.30;99.90;;;;;;5017364;28;20029;-78
2021/11/11 08:29:10;;;;;;;35.92;23.25;;;3.40;99.90;;;;;;5026223;28;20037;-77
2021/11/11 08:31:36;;;;;;;32.28;21.92;;;3.60;99.90;;;;;;5013032;28;20038;-78
2021/11/11 08:34:03;;;;;;;32.50;22.75;;;3.80;99.90;;;;;;5011834;28;20085;-76
2021/11/11 08:36:28;;;;;;;32.67;22.05;;;3.90;99.90;;;;;;5012982;28;20379;-77
2021/11/11 08:38:58;;;;;;;33.95;22.58;;;4.00;99.90;;;;;;5000732;28;20058;-76
2021/11/11 08:41:25;;;;;;;32.40;24.15;;;4.30;99.90;;;;;;5014056;28;20026;-77
2021/11/11 08:43:51;;;;;;;33.28;22.67;;;4.40;99.90;;;;;;5015028;28;20165;-76
2021/11/11 08:46:16;;;;;;;31.92;23.25;;;4.60;99.90;;;;;;5011597;28;20490;-77
2021/11/11 08:48:42;;;;;;;34.72;21.20;;;4.50;99.90;;;;;;5005416;28;20033;-76
2021/11/11 08:51:08;;;;;;;48.70;23.77;;;4.40;99.90;;;;;;5011467;28;20034;-77
2021/11/11 08:53:33;;;;;;;34.08;22.15;;;4.50;99.90;;;;;;5013227;28;20029;-76
2021/11/11 08:55:59;;;;;;;35.50;22.30;;;4.70;99.90;;;;;;5013391;28;20026;-77
2021/11/11 08:58:29;;;;;;;36.55;23.38;;;4.70;99.90;;;;;;5017425;28;20045;-77
2021/11/11 09:00:56;;;;;;;36.30;24.92;;;4.70;99.90;;;;;;5001694;28;20142;-76
2021/11/11 09:03:22;;;;;;;34.55;23.50;;;4.60;99.90;;;;;;5013429;28;20026;-77
2021/11/11 09:05:48;;;;;;;29.67;22.60;;;4.80;99.90;;;;;;5013321;28;20030;-77
2021/11/11 09:08:14;;;;;;;25.67;19.85;;;5.10;99.90;;;;;;5011091;28;20053;-77
2021/11/11 09:10:43;;;;;;;27.95;19.70;;;4.90;99.90;;;;;;5012581;28;20501;-77
2021/11/11 09:13:09;;;;;;;26.40;19.50;;;4.90;99.90;;;;;;5014617;28;20551;-77
2021/11/11 09:15:36;;;;;;;26.17;19.40;;;5.00;99.90;;;;;;5020952;28;20305;-78
2021/11/11 09:18:04;;;;;;;24.42;18.67;;;5.10;99.90;;;;;;5014890;28;20041;-77
2021/11/11 09:20:31;;;;;;;25.83;19.55;;;5.20;99.90;;;;;;5009470;28;20037;-78
2021/11/11 09:22:59;;;;;;;26.63;19.67;;;5.40;99.90;;;;;;5008913;28;20026;-77
2021/11/11 09:25:27;;;;;;;28.48;18.83;;;5.60;99.90;;;;;;5011780;28;20018;-78
2021/11/11 09:27:54;;;;;;;28.70;20.25;;;5.80;99.90;;;;;;5008600;28;20025;-76
2021/11/11 09:30:23;;;;;;;28.10;20.45;;;5.90;99.90;;;;;;5007480;28;20436;-77
2021/11/11 09:32:50;;;;;;;26.15;20.23;;;6.00;99.90;;;;;;5006674;28;20026;-78
2021/11/11 09:35:16;;;;;;;29.35;20.23;;;6.10;99.90;;;;;;5014251;28;20028;-76
2021/11/11 09:37:42;;;;;;;27.42;20.92;;;6.10;99.90;;;;;;5013851;28;20037;-77
2021/11/11 09:40:11;;;;;;;24.40;19.60;;;6.20;99.90;;;;;;5008282;28;20034;-77
2021/11/11 09:42:39;;;;;;;30.48;20.35;;;6.20;99.90;;;;;;5011147;28;20389;-77
2021/11/11 09:45:08;;;;;;;31.63;21.55;;;6.20;99.90;;;;;;5011315;28;20026;-76
2021/11/11 09:47:34;;;;;;;27.10;19.50;;;6.10;99.90;;;;;;5012751;28;20094;-77
2021/11/11 09:50:01;;;;;;;29.40;19.52;;;6.20;99.90;;;;;;5012337;28;20096;-77
2021/11/11 09:52:26;;;;;;;26.27;20.92;;;6.20;99.90;;;;;;5008788;28;20026;-77
2021/11/11 10:00:24;;;;;;;27.30;19.95;;;6.50;99.90;;;;;;5007732;28;20052;-77
2021/11/11 10:02:54;;;;;;;30.40;21.38;;;6.60;99.90;;;;;;5018810;28;20036;-78
2021/11/11 10:05:20;;;;;;;25.75;20.15;;;6.50;99.90;;;;;;5006129;28;20122;-77
2021/11/11 10:07:46;;;;;;;33.67;20.00;;;6.60;99.90;;;;;;5011813;28;20026;-78
2021/11/11 10:10:30;;;;;;;32.30;19.58;;;6.60;99.90;;;;;;5017137;28;20066;-77
2021/11/11 10:13:15;;;;;;;24.90;19.90;;;6.70;99.90;;;;;;5015534;28;20029;-79
2021/11/11 10:16:05;;;;;;;21.17;18.88;;;6.80;99.90;;;;;;5020004;28;20045;-77
2021/11/11 10:18:42;;;;;;;25.50;18.00;;;6.90;99.90;;;;;;5011012;28;20025;-78
2021/11/11 10:21:29;;;;;;;27.33;18.95;;;6.80;99.90;;;;;;5016082;28;20073;-77
2021/11/11 10:23:56;;;;;;;30.48;18.98;;;6.90;99.90;;;;;;5015720;28;20049;-76
2021/11/11 10:26:38;;;;;;;25.50;19.27;;;6.90;99.90;;;;;;5015976;28;20382;-77
2021/11/11 10:29:21;;;;;;;22.33;17.88;;;6.90;99.90;;;;;;5013607;28;20149;-76
2021/11/11 10:31:52;;;;;;;26.55;18.65;;;6.90;99.90;;;;;;5014796;28;20389;-76
2021/11/11 10:34:18;;;;;;;22.35;17.65;;;6.80;99.90;;;;;;5019033;28;20034;-77
2021/11/11 10:36:49;;;;;;;24.73;17.95;;;6.90;99.90;;;;;;5020946;28;20030;-77
2021/11/11 10:39:47;;;;;;;22.17;17.38;;;6.90;99.90;;;;;;5019587;28;20053;-77
2021/11/11 10:42:17;;;;;;;27.23;17.67;;;7.10;99.90;;;;;;5022522;28;20042;-77
2021/11/11 10:44:43;;;;;;;26.05;17.42;;;7.20;99.90;;;;;;5017338;28;20027;-77
2021/11/11 10:47:12;;;;;;;37.90;20.58;;;7.30;99.90;;;;;;5017991;28;20401;-77
2021/11/11 10:49:40;;;;;;;32.35;19.83;;;7.40;99.90;;;;;;5024543;28;20032;-79
2021/11/11 10:52:33;;;;;;;24.30;17.85;;;7.30;99.90;;;;;;5017068;28;20088;-77
2021/11/11 10:55:07;;;;;;;19.45;16.60;;;7.40;99.90;;;;;;5014974;28;20034;-76
2021/11/11 10:57:43;;;;;;;21.25;17.52;;;7.40;99.90;;;;;;5007650;28;20412;-77
2021/11/11 11:00:17;;;;;;;22.42;17.20;;;7.40;99.90;;;;;;5010724;28;20026;-76
2021/11/11 11:02:48;;;;;;;25.65;18.10;;;7.10;99.90;;;;;;5009013;28;20035;-76
2021/11/11 11:05:14;;;;;;;26.27;16.58;;;7.10;99.90;;;;;;5016400;28;20033;-77
2021/11/11 11:07:40;;;;;;;22.65;17.85;;;7.20;99.90;;;;;;5016204;28;20034;-79
2021/11/11 11:10:07;;;;;;;25.92;18.90;;;7.30;99.90;;;;;;5016035;28;20026;-77
2021/11/11 11:12:33;;;;;;;19.80;17.35;;;7.40;99.90;;;;;;5022342;28;20028;-77
2021/11/11 11:14:59;;;;;;;26.92;17.67;;;7.50;99.90;;;;;;5030911;28;20026;-76
2021/11/11 11:17:25;;;;;;;25.35;17.90;;;7.50;99.90;;;;;;5031770;28;20022;-77
2021/11/11 11:20:19;;;;;;;24.00;17.98;;;7.60;99.90;;;;;;5035889;28;20088;-76
2021/11/11 11:22:45;;;;;;;26.58;18.25;;;7.70;99.90;;;;;;5034375;28;20030;-76
2021/11/11 11:25:11;;;;;;;29.70;18.42;;;7.80;99.90;;;;;;5031539;28;20084;-77
2021/11/11 11:27:37;;;;;;;23.98;17.67;;;7.90;99.90;;;;;;5034024;28;20034;-77
2021/11/11 11:30:12;;;;;;;19.85;17.15;;;8.00;99.90;;;;;;5019591;28;20036;-76
2021/11/11 11:32:42;;;;;;;19.20;16.73;;;8.00;99.90;;;;;;5026012;28;20109;-76
2021/11/11 11:35:11;;;;;;;22.02;16.30;;;8.00;99.90;;;;;;5023400;28;20056;-77
2021/11/11 11:37:37;;;;;;;25.08;17.15;;;8.00;99.90;;;;;;5010612;28;20327;-78
2021/11/11 11:40:10;;;;;;;19.15;16.10;;;8.00;99.90;;;;;;5020809;28;20030;-78
2021/11/11 11:42:41;;;;;;;21.40;17.65;;;8.00;99.90;;;;;;5025539;28;20022;-78
2021/11/11 11:45:11;;;;;;;20.42;16.77;;;8.00;99.90;;;;;;5034953;28;20028;-78
2021/11/11 11:50:17;;;;;;;22.65;17.45;;;8.00;99.90;;;;;;5020122;28;20036;-77
2021/11/11 11:52:47;;;;;;;20.23;16.60;;;8.20;99.90;;;;;;5017170;28;20573;-78
2021/11/11 11:55:19;;;;;;;23.33;16.50;;;8.10;99.90;;;;;;5019372;28;20033;-79
2021/11/11 11:58:05;;;;;;;21.00;17.00;;;8.00;99.90;;;;;;5024624;28;20033;-77
2021/11/11 12:01:29;;;;;;;24.13;17.25;;;8.00;99.90;;;;;;5011572;28;20026;-79
2021/11/11 12:39:45;;;;;;;24.30;17.95;;;7.70;99.90;;;;;;5026768;28;20033;-77
2021/11/11 12:42:27;;;;;;;19.33;17.30;;;7.40;99.90;;;;;;5032194;28;20021;-79
2021/11/11 12:45:13;;;;;;;20.98;18.27;;;7.60;99.90;;;;;;5017997;28;20034;-77
2021/11/11 12:47:47;;;;;;;23.02;19.02;;;7.40;99.90;;;;;;5015904;28;20022;-76
2021/11/11 12:50:34;;;;;;;20.17;17.50;;;7.70;99.90;;;;;;5014226;28;20045;-76
2021/11/11 12:55:47;;;;;;;22.02;17.98;;;7.80;99.90;;;;;;5021300;28;20056;-76
2021/11/11 12:58:19;;;;;;;22.33;19.42;;;8.00;99.90;;;;;;5015850;28;20025;-79
2021/11/11 13:00:51;;;;;;;25.30;19.70;;;8.10;99.90;;;;;;5011364;28;20030;-78
2021/11/11 13:03:18;;;;;;;29.08;18.65;;;8.00;99.90;;;;;;5010344;28;20029;-77
2021/11/11 13:05:50;;;;;;;29.98;21.00;;;8.00;99.90;;;;;;5013799;28;20612;-76
2021/11/11 13:08:21;;;;;;;22.20;19.67;;;8.00;99.90;;;;;;5020097;28;20389;-80
2021/11/11 13:10:59;;;;;;;25.55;20.45;;;8.10;99.90;;;;;;5020355;28;20033;-75
2021/11/11 13:13:25;;;;;;;22.35;18.65;;;8.00;99.90;;;;;;5010018;28;20022;-79
2021/11/11 13:16:11;;;;;;;26.10;19.92;;;8.00;99.90;;;;;;5018933;28;20026;-77
2021/11/11 13:18:41;;;;;;;27.83;18.85;;;7.90;99.90;;;;;;5013005;28;20049;-78
2021/11/11 13:21:22;;;;;;;27.05;21.02;;;7.70;99.90;;;;;;5015066;28;20049;-77
2021/11/11 14:00:39;;;;;;;26.00;20.52;;;6.90;99.90;;;;;;5016741;28;20049;-76
2021/11/11 14:03:33;;;;;;;29.30;20.98;;;7.00;99.90;;;;;;5011675;28;20022;-76
2021/11/11 16:26:53;;;;;;;43.70;30.38;;;4.70;99.90;;;;;;5015021;28;20401;-77
2021/11/11 16:29:20;;;;;;;45.70;31.33;;;5.00;99.90;;;;;;5014448;28;20105;-77
2021/11/11 16:31:46;;;;;;;44.25;30.42;;;4.80;99.90;;;;;;5012759;28;20481;-77
2021/11/11 16:34:11;;;;;;;48.38;32.15;;;4.60;99.90;;;;;;5018805;28;20038;-77
2021/11/11 16:36:40;;;;;;;41.58;29.92;;;4.60;99.90;;;;;;5019195;28;20041;-80
2021/11/11 16:39:06;;;;;;;44.67;30.77;;;4.60;99.90;;;;;;5021105;28;20053;-77
2021/11/11 16:41:33;;;;;;;48.83;33.03;;;4.70;99.90;;;;;;5019559;28;20037;-77
2021/11/11 16:43:59;;;;;;;48.70;30.67;;;4.80;99.90;;;;;;5009333;28;20018;-77